Time;durP1;ratioP1;P1;durP2;ratioP2;P2;SDS_P1;SDS_P2;PMS_P1;PMS_P2;Temp;Humidity;BMP_temperature;BMP_pressure;BME280_temperature;BME280_humidity;BME280_pressure;Samples;Min_cycle;Max_cycle;Signal;HPM_P1;HPM_P2
2023/07/31 00:02:00;;;;;;;1.00;0.40;;;16.90;99.90;;;;;;5073290;28;20442;-53
2023/07/31 00:04:27;;;;;;;1.00;0.40;;;16.90;99.90;;;;;;5073943;28;20438;-56
2023/07/31 00:06:56;;;;;;;1.53;0.40;;;16.80;99.90;;;;;;5073559;28;20731;-54
2023/07/31 00:09:23;;;;;;;1.00;0.40;;;16.80;99.90;;;;;;5071597;28;20428;-55
2023/07/31 00:11:50;;;;;;;1.03;0.40;;;17.00;99.90;;;;;;5071860;28;20484;-56
2023/07/31 00:14:17;;;;;;;1.50;0.40;;;16.90;99.90;;;;;;5071630;28;20599;-54
2023/07/31 00:16:44;;;;;;;0.60;0.30;;;16.90;99.90;;;;;;5072700;28;20424;-53
2023/07/31 00:19:11;;;;;;;0.90;0.40;;;16.90;99.90;;;;;;5072502;28;20423;-51
2023/07/31 00:21:38;;;;;;;0.95;0.40;;;16.90;99.90;;;;;;5072214;28;20423;-54
2023/07/31 00:24:06;;;;;;;0.73;0.40;;;16.90;99.90;;;;;;5074168;28;20427;-54
2023/07/31 00:26:33;;;;;;;1.20;0.40;;;17.10;99.90;;;;;;5074810;28;20858;-53
2023/07/31 00:29:00;;;;;;;0.70;0.32;;;17.10;75.70;;;;;;5073997;28;20430;-56
2023/07/31 00:31:27;;;;;;;1.50;0.40;;;17.00;99.90;;;;;;5074473;28;20495;-57
2023/07/31 00:33:54;;;;;;;0.63;0.50;;;16.90;99.90;;;;;;5075185;28;20712;-54
2023/07/31 00:36:21;;;;;;;1.70;0.50;;;16.80;99.90;;;;;;5075464;28;20419;-52
2023/07/31 00:38:49;;;;;;;1.00;0.40;;;16.80;99.90;;;;;;5074624;28;20441;-54
2023/07/31 00:41:17;;;;;;;0.80;0.40;;;16.80;99.90;;;;;;5074941;28;20438;-55
2023/07/31 00:43:44;;;;;;;0.63;0.40;;;16.70;99.90;;;;;;5074608;28;20482;-49
2023/07/31 00:46:11;;;;;;;1.20;0.43;;;16.60;1.00;;;;;;5074666;28;20420;-56
2023/07/31 00:48:39;;;;;;;0.60;0.40;;;16.60;1.00;;;;;;5074399;28;20469;-52
2023/07/31 00:51:07;;;;;;;0.80;0.40;;;16.50;1.00;;;;;;5074627;28;20755;-50
2023/07/31 00:53:35;;;;;;;0.70;0.40;;;16.40;1.00;;;;;;5074845;28;20435;-53
2023/07/31 00:56:02;;;;;;;2.70;0.40;;;16.40;1.00;;;;;;5074463;28;20735;-53
2023/07/31 00:58:30;;;;;;;1.10;0.43;;;16.40;1.00;;;;;;5074792;28;20431;-56
2023/07/31 01:00:57;;;;;;;1.00;0.40;;;16.40;1.00;;;;;;5074374;28;20419;-55
2023/07/31 01:03:24;;;;;;;0.90;0.43;;;16.30;1.00;;;;;;5074487;28;20419;-53
2023/07/31 01:06:02;;;;;;;0.90;0.40;;;16.30;1.00;;;;;;5074576;28;20497;-54
2023/07/31 01:08:38;;;;;;;0.60;0.40;;;16.40;1.00;;;;;;5074329;28;20678;-54
2023/07/31 01:11:11;;;;;;;0.73;0.40;;;16.40;1.00;;;;;;5074472;28;20435;-56
2023/07/31 01:13:40;;;;;;;1.57;0.50;;;16.30;1.00;;;;;;5074659;28;20443;-56
2023/07/31 01:16:07;;;;;;;1.70;0.50;;;16.30;1.00;;;;;;5074220;28;20828;-54
2023/07/31 01:18:34;;;;;;;1.10;0.40;;;16.20;1.00;;;;;;5074224;28;20427;-55
2023/07/31 01:21:18;;;;;;;0.55;0.30;;;16.20;1.00;;;;;;5074495;28;20454;-55
2023/07/31 01:24:09;;;;;;;1.15;0.40;;;16.20;1.00;;;;;;5074259;28;20431;-56
2023/07/31 01:26:40;;;;;;;0.90;0.50;;;16.20;1.00;;;;;;5073949;28;20428;-55
2023/07/31 01:29:12;;;;;;;0.80;0.50;;;16.10;1.00;;;;;;5073471;28;20431;-54
2023/07/31 01:31:41;;;;;;;1.05;0.40;;;16.10;1.00;;;;;;5074090;28;20431;-56
2023/07/31 01:34:11;;;;;;;1.10;0.40;;;16.10;1.00;;;;;;5077612;28;20786;-52
2023/07/31 01:36:38;;;;;;;1.00;0.40;;;16.10;1.00;;;;;;5077392;28;20712;-55
2023/07/31 01:39:05;;;;;;;1.40;0.50;;;16.00;1.00;;;;;;5077732;28;20427;-56
2023/07/31 01:41:32;;;;;;;2.30;0.40;;;16.00;1.00;;;;;;5077630;28;20435;-53
2023/07/31 01:44:00;;;;;;;1.50;0.50;;;16.00;1.00;;;;;;5077373;28;20835;-56
2023/07/31 01:46:27;;;;;;;0.70;0.50;;;16.00;1.00;;;;;;5076957;28;20431;-51
2023/07/31 01:48:54;;;;;;;1.30;0.50;;;16.00;1.00;;;;;;5077316;28;20431;-54
2023/07/31 01:51:23;;;;;;;0.60;0.40;;;16.00;1.00;;;;;;5076325;28;21246;-55
2023/07/31 01:53:50;;;;;;;0.70;0.40;;;16.10;1.00;;;;;;5077762;28;20509;-54
2023/07/31 01:56:17;;;;;;;0.88;0.40;;;16.10;1.00;;;;;;5077697;28;20427;-56
2023/07/31 01:58:44;;;;;;;1.00;0.50;;;16.10;1.00;;;;;;5076920;28;20432;-55
2023/07/31 02:01:12;;;;;;;1.60;0.40;;;16.20;1.00;;;;;;5076841;28;20854;-55
2023/07/31 02:03:39;;;;;;;0.90;0.40;;;16.20;1.00;;;;;;5076538;28;20936;-53
2023/07/31 02:06:06;;;;;;;1.58;0.50;;;16.10;1.00;;;;;;5077579;28;20774;-55
2023/07/31 02:08:33;;;;;;;1.30;0.40;;;16.10;1.00;;;;;;5076762;28;20431;-54
2023/07/31 02:11:00;;;;;;;1.50;0.30;;;16.00;1.00;;;;;;5077069;28;20855;-56
2023/07/31 02:13:27;;;;;;;0.70;0.40;;;15.90;1.00;;;;;;5077085;28;20434;-54
2023/07/31 02:15:54;;;;;;;0.67;0.40;;;15.90;1.00;;;;;;5076670;28;20420;-56
2023/07/31 02:18:23;;;;;;;0.70;0.40;;;15.90;1.00;;;;;;5076397;28;20423;-55
2023/07/31 02:20:51;;;;;;;0.90;0.40;;;16.00;1.00;;;;;;5075553;28;20427;-55
2023/07/31 02:23:18;;;;;;;1.23;0.40;;;16.00;1.00;;;;;;5077514;28;20427;-54
2023/07/31 02:25:45;;;;;;;0.85;0.40;;;16.00;1.00;;;;;;5077133;28;20463;-56
2023/07/31 02:28:12;;;;;;;0.68;0.40;;;16.10;1.00;;;;;;5076561;28;20434;-58
2023/07/31 02:30:39;;;;;;;1.30;0.40;;;16.10;1.00;;;;;;5076531;28;20426;-54
2023/07/31 02:33:06;;;;;;;1.15;0.40;;;16.00;1.00;;;;;;5077007;28;20851;-55
2023/07/31 02:35:35;;;;;;;2.00;0.50;;;16.00;1.00;;;;;;5076111;28;20858;-56
2023/07/31 02:38:02;;;;;;;1.05;0.40;;;16.00;1.00;;;;;;5076840;28;20442;-52
2023/07/31 02:40:29;;;;;;;0.70;0.47;;;16.00;1.00;;;;;;5076454;28;20707;-55
2023/07/31 02:42:56;;;;;;;0.70;0.40;;;15.90;1.00;;;;;;5076293;28;20427;-53
2023/07/31 02:45:23;;;;;;;1.10;0.40;;;15.90;1.00;;;;;;5075485;28;20835;-55
2023/07/31 02:47:50;;;;;;;1.00;0.40;;;15.90;1.00;;;;;;5076524;28;20423;-55
2023/07/31 02:50:17;;;;;;;0.70;0.40;;;15.90;1.00;;;;;;5076789;28;20427;-55
2023/07/31 02:52:45;;;;;;;0.90;0.40;;;15.90;1.00;;;;;;5076154;28;20931;-51
2023/07/31 02:55:12;;;;;;;0.70;0.40;;;15.90;1.00;;;;;;5076158;28;20443;-54
2023/07/31 02:57:39;;;;;;;0.70;0.40;;;16.10;1.00;;;;;;5075948;28;20423;-53
2023/07/31 03:00:09;;;;;;;0.70;0.40;;;16.00;1.00;;;;;;5075775;28;20774;-56
2023/07/31 03:02:36;;;;;;;0.70;0.40;;;16.00;1.00;;;;;;5073697;28;20529;-54
2023/07/31 03:05:03;;;;;;;0.60;0.30;;;16.10;1.00;;;;;;5075835;28;20423;-55
2023/07/31 03:07:30;;;;;;;1.10;0.40;;;16.10;1.00;;;;;;5075771;28;20489;-55
2023/07/31 03:09:58;;;;;;;0.80;0.40;;;16.00;1.00;;;;;;5075896;28;20696;-54
2023/07/31 03:12:25;;;;;;;2.45;0.40;;;15.90;1.00;;;;;;5075394;28;20428;-55
2023/07/31 03:14:52;;;;;;;2.00;0.50;;;15.90;1.00;;;;;;5073869;28;20442;-56
2023/07/31 03:17:19;;;;;;;1.23;0.40;;;15.90;1.00;;;;;;5075058;28;20778;-55
2023/07/31 03:19:47;;;;;;;0.80;0.40;;;16.00;1.00;;;;;;5075931;28;20434;-56
2023/07/31 03:22:14;;;;;;;1.40;0.50;;;16.00;1.00;;;;;;5075961;28;20423;-57
2023/07/31 03:24:41;;;;;;;0.90;0.40;;;16.00;1.00;;;;;;5075972;28;20484;-52
2023/07/31 03:27:09;;;;;;;1.00;0.40;;;16.00;1.00;;;;;;5074921;28;20447;-55
2023/07/31 03:29:36;;;;;;;0.90;0.40;;;15.90;1.00;;;;;;5074312;28;20461;-55
2023/07/31 03:32:04;;;;;;;1.10;0.50;;;15.90;1.00;;;;;;5074839;28;20435;-55
2023/07/31 03:34:31;;;;;;;1.17;0.40;;;15.90;1.00;;;;;;5074709;28;20443;-54
2023/07/31 03:36:58;;;;;;;1.50;0.50;;;15.80;1.00;;;;;;5074281;28;20423;-55
2023/07/31 03:39:25;;;;;;;1.55;0.45;;;15.80;1.00;;;;;;5074145;28;20423;-53
2023/07/31 03:41:52;;;;;;;2.00;0.40;;;15.70;1.00;;;;;;5075150;28;20438;-55
2023/07/31 03:44:21;;;;;;;1.90;0.50;;;15.70;1.00;;;;;;5075377;28;20782;-54
2023/07/31 03:46:48;;;;;;;0.80;0.40;;;15.70;1.00;;;;;;5075450;28;20423;-54
2023/07/31 03:49:15;;;;;;;1.20;0.40;;;15.70;1.00;;;;;;5073927;28;20427;-56
2023/07/31 03:51:42;;;;;;;1.30;0.47;;;15.80;1.00;;;;;;5075516;28;20420;-55
2023/07/31 03:54:09;;;;;;;0.75;0.40;;;15.90;1.00;;;;;;5075182;28;20442;-53
2023/07/31 03:56:38;;;;;;;1.20;0.40;;;15.90;1.00;;;;;;5075266;28;20430;-53
2023/07/31 03:59:05;;;;;;;1.60;0.60;;;15.80;1.00;;;;;;5074920;28;20731;-55
2023/07/31 04:01:33;;;;;;;1.00;0.40;;;15.90;1.00;;;;;;5074836;28;20554;-53
2023/07/31 04:04:00;;;;;;;1.70;0.50;;;16.00;1.00;;;;;;5074690;28;20419;-55
2023/07/31 04:06:27;;;;;;;1.10;0.40;;;16.20;1.00;;;;;;5074515;28;20411;-55
2023/07/31 04:08:54;;;;;;;0.60;0.30;;;16.40;1.00;;;;;;5074120;28;20423;-51
2023/07/31 04:11:21;;;;;;;1.10;0.40;;;16.50;1.00;;;;;;5073186;28;20508;-54
2023/07/31 04:13:48;;;;;;;0.80;0.47;;;16.50;99.90;;;;;;5073712;28;20484;-54
2023/07/31 04:16:15;;;;;;;1.00;0.30;;;16.70;1.00;;;;;;5073921;28;20431;-53
2023/07/31 04:18:43;;;;;;;0.70;0.40;;;16.60;99.90;;;;;;5074058;28;21039;-52
2023/07/31 04:21:11;;;;;;;1.00;0.40;;;16.70;99.90;;;;;;5074577;28;20430;-51
2023/07/31 04:23:38;;;;;;;0.73;0.40;;;16.80;99.90;;;;;;5074650;28;20470;-54
2023/07/31 04:26:05;;;;;;;0.77;0.40;;;16.90;99.90;;;;;;5074381;28;20426;-55
2023/07/31 04:28:32;;;;;;;0.70;0.40;;;17.00;99.90;;;;;;5074404;28;20427;-53
2023/07/31 04:30:59;;;;;;;1.20;0.40;;;17.00;11.80;;;;;;5074613;28;20506;-52
2023/07/31 04:33:26;;;;;;;0.80;0.40;;;17.00;99.90;;;;;;5075064;28;20878;-55
2023/07/31 04:35:55;;;;;;;0.90;0.40;;;17.10;1.00;;;;;;5074369;28;20509;-55
2023/07/31 04:38:22;;;;;;;1.10;0.50;;;17.20;1.00;;;;;;5074504;28;20510;-55
2023/07/31 04:40:50;;;;;;;0.70;0.40;;;17.20;1.00;;;;;;5073356;28;20420;-54
2023/07/31 04:43:17;;;;;;;1.40;0.50;;;17.20;99.90;;;;;;5074078;28;20431;-54
2023/07/31 04:45:47;;;;;;;0.90;0.40;;;17.30;1.00;;;;;;5073276;28;20430;-56
2023/07/31 04:48:14;;;;;;;2.50;0.40;;;17.30;99.90;;;;;;5074416;28;20527;-54
2023/07/31 04:50:41;;;;;;;0.80;0.40;;;17.30;1.00;;;;;;5074257;28;20423;-54
2023/07/31 04:53:09;;;;;;;0.70;0.40;;;17.40;99.90;;;;;;5074065;28;20427;-53
2023/07/31 04:55:36;;;;;;;0.90;0.40;;;17.50;1.00;;;;;;5072601;28;20940;-55
2023/07/31 04:58:03;;;;;;;0.80;0.40;;;17.50;1.00;;;;;;5072642;28;20772;-53
2023/07/31 05:00:30;;;;;;;1.73;0.50;;;17.50;1.00;;;;;;5070499;28;20415;-54
2023/07/31 05:02:57;;;;;;;1.10;0.40;;;17.50;1.00;;;;;;5073091;28;20427;-55
2023/07/31 05:05:24;;;;;;;0.88;0.40;;;17.50;1.00;;;;;;5072618;28;20423;-55
2023/07/31 05:07:51;;;;;;;0.70;0.40;;;17.40;1.00;;;;;;5073610;28;20423;-54
2023/07/31 05:10:20;;;;;;;1.80;0.40;;;17.40;99.90;;;;;;5074262;28;20710;-53
2023/07/31 05:12:47;;;;;;;1.20;0.50;;;17.40;99.90;;;;;;5075335;28;20423;-55
2023/07/31 05:15:14;;;;;;;0.60;0.40;;;17.40;1.00;;;;;;5075629;28;20488;-54
2023/07/31 05:17:41;;;;;;;0.60;0.40;;;17.40;1.00;;;;;;5076118;28;20427;-56
2023/07/31 05:20:09;;;;;;;1.00;0.40;;;17.40;1.00;;;;;;5075042;28;20427;-55
2023/07/31 05:22:36;;;;;;;0.60;0.37;;;17.50;99.90;;;;;;5075601;28;20423;-55
2023/07/31 05:25:03;;;;;;;1.20;0.40;;;17.50;99.90;;;;;;5073787;28;20831;-56
2023/07/31 05:27:32;;;;;;;0.85;0.40;;;17.50;1.00;;;;;;5074237;28;20419;-58
2023/07/31 05:29:59;;;;;;;1.05;0.40;;;17.40;99.90;;;;;;5074427;28;20455;-55
2023/07/31 05:32:26;;;;;;;0.90;0.40;;;17.40;1.00;;;;;;5075175;28;20428;-55
2023/07/31 05:34:53;;;;;;;0.80;0.45;;;17.40;1.00;;;;;;5075567;28;20855;-56
2023/07/31 05:37:21;;;;;;;1.20;0.40;;;17.40;1.00;;;;;;5075853;28;20431;-57
2023/07/31 05:39:47;;;;;;;1.13;0.50;;;17.40;1.00;;;;;;5076866;28;20419;-55
2023/07/31 05:42:14;;;;;;;1.00;0.40;;;17.50;1.00;;;;;;5076873;28;20427;-56
2023/07/31 05:44:43;;;;;;;1.10;0.40;;;17.60;1.00;;;;;;5074778;28;20427;-56
2023/07/31 05:47:10;;;;;;;0.87;0.40;;;17.80;1.00;;;;;;5077051;28;20420;-55
2023/07/31 05:49:37;;;;;;;0.60;0.40;;;17.90;99.90;;;;;;5077368;28;20419;-57
2023/07/31 05:52:05;;;;;;;1.20;0.40;;;18.00;97.90;;;;;;5077416;28;20732;-55
2023/07/31 05:54:33;;;;;;;1.40;0.40;;;18.00;1.00;;;;;;5077049;28;20419;-54
2023/07/31 05:57:00;;;;;;;1.30;0.40;;;18.10;99.90;;;;;;5076639;28;20501;-52
2023/07/31 05:59:27;;;;;;;1.50;0.40;;;18.10;1.00;;;;;;5075189;28;20484;-55
2023/07/31 06:01:56;;;;;;;1.20;0.40;;;18.10;1.00;;;;;;5073269;28;20431;-52
2023/07/31 06:04:25;;;;;;;1.30;0.40;;;18.20;1.00;;;;;;5074524;28;20415;-54
2023/07/31 06:06:52;;;;;;;0.98;0.38;;;18.20;1.00;;;;;;5075318;28;20416;-55
2023/07/31 06:09:20;;;;;;;0.80;0.40;;;18.30;1.00;;;;;;5075642;28;20420;-55
2023/07/31 06:11:47;;;;;;;1.42;0.40;;;18.40;44.80;;;;;;5073572;28;20843;-55
2023/07/31 06:14:14;;;;;;;0.90;0.30;;;18.60;1.00;;;;;;5072340;28;20771;-57
2023/07/31 06:16:41;;;;;;;0.90;0.40;;;18.70;99.90;;;;;;5073787;28;20442;-57
2023/07/31 06:19:10;;;;;;;1.20;0.40;;;18.80;99.90;;;;;;5075099;28;20816;-55
2023/07/31 06:21:38;;;;;;;2.40;0.50;;;19.00;1.00;;;;;;5065662;28;20484;-54
2023/07/31 06:24:05;;;;;;;0.60;0.30;;;19.20;1.00;;;;;;5088132;28;20421;-53
2023/07/31 06:26:32;;;;;;;1.60;0.40;;;19.30;99.90;;;;;;5076882;28;20427;-55
2023/07/31 06:28:59;;;;;;;1.55;0.40;;;19.40;99.90;;;;;;5075410;28;20858;-57
2023/07/31 06:31:26;;;;;;;1.13;0.40;;;19.30;99.90;;;;;;5073617;28;20442;-57
2023/07/31 06:33:54;;;;;;;1.13;0.40;;;19.50;99.90;;;;;;5071893;28;20426;-58
2023/07/31 06:36:22;;;;;;;0.80;0.40;;;19.80;36.40;;;;;;5066779;28;20444;-58
2023/07/31 06:38:49;;;;;;;0.80;0.40;;;20.00;1.00;;;;;;5072489;28;21037;-57
2023/07/31 06:41:16;;;;;;;0.60;0.40;;;20.10;1.00;;;;;;5070228;28;20890;-58
2023/07/31 06:43:43;;;;;;;0.70;0.40;;;20.10;1.00;;;;;;5069622;28;20481;-58
2023/07/31 06:46:10;;;;;;;0.70;0.40;;;20.20;1.00;;;;;;5061856;28;20692;-58
2023/07/31 06:48:37;;;;;;;0.60;0.40;;;20.30;1.00;;;;;;5062312;28;20526;-58
2023/07/31 06:51:04;;;;;;;1.30;0.40;;;20.20;1.00;;;;;;5070276;28;20447;-59
2023/07/31 06:53:33;;;;;;;1.20;0.40;;;20.30;1.00;;;;;;5065786;28;20456;-59
2023/07/31 06:56:00;;;;;;;0.70;0.40;;;20.30;99.90;;;;;;5070889;28;20522;-57
2023/07/31 06:58:27;;;;;;;1.10;0.70;;;20.20;99.90;;;;;;5069251;28;20439;-53
2023/07/31 07:00:55;;;;;;;1.00;0.40;;;20.30;99.90;;;;;;5068397;28;20864;-58
2023/07/31 07:03:22;;;;;;;1.10;0.40;;;20.50;1.00;;;;;;5069166;28;20435;-58
2023/07/31 07:05:49;;;;;;;1.83;0.40;;;20.70;99.90;;;;;;5070433;28;20439;-58
2023/07/31 07:08:16;;;;;;;1.10;0.40;;;20.70;99.90;;;;;;5071592;28;20485;-59
2023/07/31 07:10:45;;;;;;;1.50;0.40;;;20.70;99.90;;;;;;5071392;28;20801;-49
2023/07/31 07:13:13;;;;;;;0.70;0.40;;;20.80;99.90;;;;;;5071339;28;20447;-49
2023/07/31 07:15:40;;;;;;;1.20;0.40;;;20.80;99.90;;;;;;5071324;28;20431;-52
2023/07/31 07:18:07;;;;;;;1.33;0.30;;;20.70;99.90;;;;;;5070672;28;20500;-51
2023/07/31 07:20:34;;;;;;;1.50;0.40;;;20.70;99.90;;;;;;5072192;28;20443;-58
2023/07/31 07:23:01;;;;;;;1.27;0.40;;;20.90;99.90;;;;;;5064158;28;20522;-58
2023/07/31 07:25:28;;;;;;;0.90;0.40;;;21.10;99.90;;;;;;5068593;28;20836;-57
2023/07/31 07:27:56;;;;;;;0.93;0.40;;;21.20;99.90;;;;;;5070495;28;20439;-57
2023/07/31 07:30:25;;;;;;;0.70;0.40;;;21.60;99.90;;;;;;5070093;28;20450;-57
2023/07/31 07:32:52;;;;;;;0.80;0.40;;;21.60;99.90;;;;;;5068173;28;20469;-58
2023/07/31 07:35:19;;;;;;;0.70;0.30;;;21.60;99.90;;;;;;5071904;28;20458;-59
2023/07/31 07:37:45;;;;;;;1.60;0.40;;;21.40;91.50;;;;;;5071821;28;20440;-59
2023/07/31 07:40:13;;;;;;;0.70;0.40;;;21.00;79.70;;;;;;5070185;28;20429;-58
2023/07/31 07:42:40;;;;;;;0.73;0.30;;;20.70;99.90;;;;;;5070722;28;20468;-59
2023/07/31 07:45:09;;;;;;;0.73;0.40;;;20.80;99.90;;;;;;5071353;28;20808;-59
2023/07/31 07:47:36;;;;;;;1.10;0.40;;;20.70;99.90;;;;;;5071944;28;20870;-59
2023/07/31 07:50:04;;;;;;;1.15;0.40;;;20.70;99.90;;;;;;5070486;28;20484;-59
2023/07/31 07:52:31;;;;;;;1.17;0.50;;;20.80;99.90;;;;;;5069687;28;20486;-59
2023/07/31 07:54:58;;;;;;;0.70;0.30;;;20.80;99.90;;;;;;5070265;28;20716;-59
2023/07/31 07:57:25;;;;;;;0.90;0.38;;;21.00;99.90;;;;;;5070609;28;20435;-59
2023/07/31 07:59:52;;;;;;;1.33;0.40;;;21.20;99.90;;;;;;5072126;28;20505;-59
2023/07/31 08:02:20;;;;;;;0.60;0.40;;;21.20;99.90;;;;;;5071179;28;20439;-59
2023/07/31 08:04:47;;;;;;;1.20;0.40;;;21.20;99.90;;;;;;5066878;28;20434;-59
2023/07/31 08:07:14;;;;;;;1.00;0.40;;;21.40;99.90;;;;;;5069818;28;20886;-59
2023/07/31 08:09:42;;;;;;;0.60;0.40;;;21.60;99.90;;;;;;5063553;28;20436;-59
2023/07/31 08:12:09;;;;;;;1.10;0.40;;;21.50;46.90;;;;;;5071659;28;20423;-59
2023/07/31 08:14:36;;;;;;;0.70;0.40;;;21.30;43.20;;;;;;5069993;28;20416;-59
2023/07/31 08:17:04;;;;;;;0.95;0.40;;;21.40;77.10;;;;;;5065260;28;20524;-59
2023/07/31 08:19:32;;;;;;;0.60;0.40;;;21.40;61.10;;;;;;5053213;28;20507;-58
2023/07/31 08:21:59;;;;;;;1.50;0.40;;;21.20;42.80;;;;;;5052447;28;20783;-59
2023/07/31 08:24:26;;;;;;;0.80;0.40;;;21.30;79.20;;;;;;5058241;28;20491;-59
2023/07/31 08:26:53;;;;;;;1.30;0.50;;;21.10;46.50;;;;;;5064965;28;20454;-58
2023/07/31 08:29:20;;;;;;;0.80;0.32;;;21.20;54.60;;;;;;5069402;28;20433;-59
2023/07/31 08:31:47;;;;;;;0.70;0.40;;;21.00;25.20;;;;;;5049935;28;20479;-59
2023/07/31 08:34:14;;;;;;;1.00;0.40;;;21.20;65.30;;;;;;5068728;28;20434;-59
2023/07/31 08:36:42;;;;;;;0.80;0.40;;;21.40;48.50;;;;;;5063032;28;20886;-59
2023/07/31 08:39:09;;;;;;;0.70;0.40;;;21.70;44.50;;;;;;5070675;28;20430;-58
2023/07/31 08:41:39;;;;;;;0.80;0.40;;;22.00;41.50;;;;;;5067490;28;20447;-58
2023/07/31 08:44:06;;;;;;;0.90;0.40;;;21.90;2.00;;;;;;5074031;28;20435;-58
2023/07/31 08:46:34;;;;;;;0.88;0.40;;;21.90;1.00;;;;;;5065676;28;20439;-58
2023/07/31 08:49:04;;;;;;;0.80;0.40;;;21.70;1.00;;;;;;5071858;28;20438;-58
2023/07/31 08:51:31;;;;;;;0.75;0.35;;;21.70;1.00;;;;;;5072286;28;20477;-58
2023/07/31 08:54:00;;;;;;;1.50;0.50;;;21.80;1.00;;;;;;5076519;28;20851;-58
2023/07/31 08:56:28;;;;;;;1.20;0.40;;;21.80;1.00;;;;;;5070325;28;20865;-58
2023/07/31 08:58:56;;;;;;;1.00;0.40;;;21.80;1.00;;;;;;5079545;28;20439;-58
2023/07/31 09:01:24;;;;;;;0.93;0.50;;;22.20;1.00;;;;;;5070747;28;20446;-58
2023/07/31 09:03:53;;;;;;;1.08;0.40;;;22.50;1.00;;;;;;5072022;28;21487;-56
2023/07/31 09:06:22;;;;;;;0.80;0.45;;;22.80;1.00;;;;;;5074243;28;20629;-56
2023/07/31 09:08:51;;;;;;;0.68;0.38;;;22.50;1.00;;;;;;5071834;28;20443;-58
2023/07/31 09:11:21;;;;;;;0.80;0.40;;;22.50;1.00;;;;;;5075883;28;20438;-58
2023/07/31 09:13:50;;;;;;;1.27;0.60;;;22.30;1.00;;;;;;5075259;28;20431;-58
2023/07/31 09:16:17;;;;;;;0.90;0.40;;;22.40;1.00;;;;;;5071851;28;20854;-58
2023/07/31 09:19:05;;;;;;;1.20;0.50;;;22.50;1.00;;;;;;5068615;28;20437;-58
2023/07/31 09:21:32;;;;;;;1.10;0.40;;;22.60;1.00;;;;;;5058934;28;20437;-58
2023/07/31 09:23:59;;;;;;;1.00;0.50;;;22.60;1.00;;;;;;5067512;28;20447;-58
2023/07/31 09:26:35;;;;;;;1.60;0.40;;;22.70;1.00;;;;;;5069232;28;20484;-58
2023/07/31 09:29:07;;;;;;;1.33;0.40;;;22.30;1.00;;;;;;5069219;28;20442;-59
2023/07/31 09:31:42;;;;;;;1.23;0.40;;;22.40;1.00;;;;;;5072998;28;20722;-58
2023/07/31 09:34:10;;;;;;;1.30;0.90;;;22.50;1.00;;;;;;5071594;28;20426;-58
2023/07/31 09:36:41;;;;;;;1.88;0.40;;;22.60;1.00;;;;;;5070565;28;20782;-59
2023/07/31 09:39:10;;;;;;;1.10;0.40;;;22.30;1.00;;;;;;5072466;28;20522;-58
2023/07/31 09:41:40;;;;;;;0.80;0.50;;;22.40;1.00;;;;;;5062749;28;20447;-58
2023/07/31 09:44:07;;;;;;;0.90;0.40;;;22.00;1.00;;;;;;5060247;28;20443;-58
2023/07/31 09:46:36;;;;;;;1.10;0.45;;;22.10;1.00;;;;;;5067424;28;20839;-58
2023/07/31 09:49:10;;;;;;;1.00;0.60;;;22.00;1.00;;;;;;5090790;28;20418;-58
2023/07/31 09:51:39;;;;;;;1.60;0.50;;;22.10;1.00;;;;;;5085403;28;20439;-58
2023/07/31 09:54:11;;;;;;;1.63;0.40;;;22.10;1.00;;;;;;5077716;28;20453;-57
2023/07/31 09:56:44;;;;;;;0.80;0.50;;;22.50;1.00;;;;;;5081985;28;20482;-58
2023/07/31 09:59:13;;;;;;;1.90;0.50;;;23.00;1.00;;;;;;5068318;28;20964;-57
2023/07/31 10:01:41;;;;;;;0.80;0.40;;;23.00;1.00;;;;;;5071977;28;20486;-59
2023/07/31 10:04:09;;;;;;;1.30;0.40;;;22.70;1.00;;;;;;5072304;28;20442;-58
2023/07/31 10:06:38;;;;;;;1.90;0.50;;;22.50;1.00;;;;;;5072249;28;20513;-58
2023/07/31 10:09:07;;;;;;;1.45;0.60;;;22.50;1.00;;;;;;5067026;28;20475;-58
2023/07/31 10:11:39;;;;;;;0.88;0.40;;;22.70;1.00;;;;;;5068388;28;20435;-58
2023/07/31 10:14:09;;;;;;;0.80;0.40;;;22.90;1.00;;;;;;5069204;28;20537;-59
2023/07/31 10:16:40;;;;;;;1.48;0.40;;;22.80;1.00;;;;;;5070683;28;20435;-58
2023/07/31 10:19:08;;;;;;;1.00;0.40;;;22.90;1.00;;;;;;5054015;28;20454;-59
2023/07/31 10:21:37;;;;;;;1.80;0.57;;;22.80;1.00;;;;;;5054320;28;20512;-58
2023/07/31 10:24:05;;;;;;;1.80;0.40;;;22.70;1.00;;;;;;5053863;28;20433;-59
2023/07/31 10:26:34;;;;;;;0.83;0.40;;;22.80;1.00;;;;;;5072340;28;20557;-59
2023/07/31 10:29:01;;;;;;;1.00;0.50;;;23.00;1.00;;;;;;5073625;28;20845;-58
2023/07/31 10:31:30;;;;;;;1.07;0.40;;;23.00;1.00;;;;;;5071729;28;20513;-58
2023/07/31 10:34:00;;;;;;;1.70;0.60;;;23.10;1.00;;;;;;5071930;28;20492;-58
2023/07/31 10:36:27;;;;;;;0.83;0.43;;;23.40;1.00;;;;;;5074187;28;20423;-58
2023/07/31 10:38:56;;;;;;;0.70;0.40;;;23.30;1.00;;;;;;5074437;28;20476;-58
2023/07/31 10:41:30;;;;;;;3.05;0.50;;;23.30;1.00;;;;;;5073404;28;20870;-58
2023/07/31 10:43:59;;;;;;;1.33;0.50;;;23.50;1.00;;;;;;5074533;28;20466;-57
2023/07/31 10:46:28;;;;;;;1.20;0.40;;;23.60;1.00;;;;;;5069713;28;20447;-58
2023/07/31 10:49:01;;;;;;;0.90;0.50;;;23.50;1.00;;;;;;5072909;28;20426;-58
2023/07/31 10:51:35;;;;;;;0.70;0.40;;;23.40;1.00;;;;;;5072112;28;20459;-58
2023/07/31 10:54:13;;;;;;;1.38;0.50;;;23.10;1.00;;;;;;5072667;28;21039;-58
2023/07/31 10:56:40;;;;;;;1.80;0.50;;;23.10;1.00;;;;;;5072527;28;20520;-58
2023/07/31 10:59:12;;;;;;;0.80;0.50;;;23.40;1.00;;;;;;5071714;28;20427;-58
2023/07/31 11:01:52;;;;;;;1.08;0.50;;;23.60;1.00;;;;;;5070610;28;20448;-58
2023/07/31 11:04:25;;;;;;;2.25;0.50;;;23.80;1.00;;;;;;5070239;28;20912;-58
2023/07/31 11:06:59;;;;;;;1.02;0.40;;;23.90;1.00;;;;;;5060306;28;20427;-57
2023/07/31 11:09:30;;;;;;;1.00;0.50;;;23.70;1.00;;;;;;5063658;28;20440;-58
2023/07/31 11:11:57;;;;;;;3.50;0.50;;;23.50;1.00;;;;;;5051115;28;20694;-58
2023/07/31 11:14:24;;;;;;;1.50;0.50;;;23.70;1.00;;;;;;5051071;28;20429;-57
2023/07/31 11:16:52;;;;;;;1.00;0.50;;;23.70;1.00;;;;;;5064522;28;20493;-58
2023/07/31 11:19:24;;;;;;;0.88;0.43;;;23.70;1.00;;;;;;5072306;28;20455;-58
2023/07/31 11:21:53;;;;;;;1.23;0.50;;;23.90;1.00;;;;;;5070345;28;20907;-58
2023/07/31 11:24:21;;;;;;;1.23;0.60;;;24.20;1.00;;;;;;5052750;28;20512;-58
2023/07/31 11:26:51;;;;;;;1.30;0.50;;;24.50;1.00;;;;;;5053658;28;20421;-58
2023/07/31 11:29:18;;;;;;;1.10;0.50;;;24.80;1.00;;;;;;5052630;28;20520;-58
2023/07/31 11:31:46;;;;;;;1.27;0.52;;;25.40;1.00;;;;;;5050914;28;20421;-57
2023/07/31 11:34:13;;;;;;;1.00;0.50;;;25.30;1.00;;;;;;5059296;28;20435;-57
2023/07/31 11:36:41;;;;;;;0.93;0.60;;;24.80;1.00;;;;;;5072963;28;20508;-59
2023/07/31 11:39:10;;;;;;;1.50;0.40;;;24.50;1.00;;;;;;5072898;28;20428;-59
2023/07/31 11:41:37;;;;;;;1.65;0.40;;;24.50;1.00;;;;;;5066604;28;20962;-57
2023/07/31 11:44:04;;;;;;;0.82;0.40;;;24.00;1.00;;;;;;5069966;28;20446;-57
2023/07/31 11:46:31;;;;;;;1.30;0.50;;;24.20;1.00;;;;;;5069180;28;20431;-59
2023/07/31 11:49:01;;;;;;;1.27;0.50;;;24.00;1.00;;;;;;5068107;28;20407;-59
2023/07/31 11:51:30;;;;;;;0.80;0.45;;;24.10;1.00;;;;;;5070341;28;20437;-59
2023/07/31 11:54:01;;;;;;;0.82;0.50;;;24.10;1.00;;;;;;5068637;28;20530;-60
2023/07/31 11:56:28;;;;;;;0.83;0.40;;;24.20;1.00;;;;;;5070103;28;20661;-60
2023/07/31 11:58:59;;;;;;;1.50;0.60;;;24.40;1.00;;;;;;5068497;28;20491;-57
2023/07/31 12:01:28;;;;;;;1.13;0.40;;;24.30;1.00;;;;;;5070771;28;20493;-59
2023/07/31 12:03:56;;;;;;;1.45;0.45;;;24.30;1.00;;;;;;5065862;28;21001;-57
2023/07/31 12:06:33;;;;;;;1.10;0.50;;;24.20;1.00;;;;;;5069425;28;20443;-57
2023/07/31 12:09:04;;;;;;;1.30;0.40;;;24.20;1.00;;;;;;5068508;28;20440;-57
2023/07/31 12:11:32;;;;;;;0.90;0.50;;;24.20;1.00;;;;;;5071590;28;20422;-59
2023/07/31 12:13:59;;;;;;;1.63;0.50;;;24.50;1.00;;;;;;5071931;28;20423;-58
2023/07/31 12:16:28;;;;;;;1.00;0.40;;;24.20;1.00;;;;;;5073125;28;20766;-58
2023/07/31 12:18:55;;;;;;;1.63;0.50;;;23.90;1.00;;;;;;5072577;28;20426;-58
2023/07/31 12:21:22;;;;;;;0.70;0.50;;;23.70;1.00;;;;;;5070026;28;20424;-58
2023/07/31 12:23:49;;;;;;;1.30;0.50;;;23.60;1.00;;;;;;5071003;28;20762;-58
2023/07/31 12:26:18;;;;;;;1.00;0.57;;;23.70;1.00;;;;;;5069993;28;20431;-58
2023/07/31 12:28:46;;;;;;;0.80;0.50;;;23.70;1.00;;;;;;5070593;28;20453;-58
2023/07/31 12:31:15;;;;;;;0.65;0.50;;;23.70;1.00;;;;;;5067994;28;20431;-59
2023/07/31 12:33:42;;;;;;;0.80;0.50;;;23.70;1.00;;;;;;5068929;28;20431;-58
2023/07/31 12:36:11;;;;;;;1.10;0.50;;;23.90;1.00;;;;;;5068746;28;20429;-58
2023/07/31 12:38:38;;;;;;;1.08;0.60;;;23.90;1.00;;;;;;5068383;28;20758;-58
2023/07/31 12:41:06;;;;;;;1.80;0.60;;;23.90;1.00;;;;;;5068018;28;20428;-58
2023/07/31 12:43:35;;;;;;;2.30;0.60;;;24.00;1.00;;;;;;5070134;28;20439;-59
2023/07/31 12:46:02;;;;;;;0.90;0.50;;;23.60;1.00;;;;;;5071439;28;20423;-60
2023/07/31 12:48:29;;;;;;;1.40;0.50;;;23.50;1.00;;;;;;5071601;28;20717;-59
2023/07/31 12:50:56;;;;;;;0.90;0.40;;;23.30;1.00;;;;;;5069786;28;20438;-60
2023/07/31 12:53:23;;;;;;;1.55;0.50;;;23.40;1.00;;;;;;5070293;28;20765;-60
2023/07/31 12:55:50;;;;;;;1.20;0.40;;;23.50;1.00;;;;;;5070678;28;20427;-60
2023/07/31 12:58:17;;;;;;;0.80;0.50;;;23.50;1.00;;;;;;5068794;28;20428;-59
2023/07/31 13:00:45;;;;;;;1.08;0.50;;;23.50;1.00;;;;;;5068543;28;20607;-59